Time;durP1;ratioP1;P1;durP2;ratioP2;P2;SDS_P1;SDS_P2;PMS_P1;PMS_P2;Temp;Humidity;BMP_temperature;BMP_pressure;BME280_temperature;BME280_humidity;BME280_pressure;Samples;Min_cycle;Max_cycle;Signal;HPM_P1;HPM_P2
2023/08/29 00:04:49;;;;;;;8.68;5.00;;;23.90;88.00;;;22.80;75.92;98719.53;10258224;28;97129;-96
2023/08/29 00:09:53;;;;;;;6.30;4.68;;;23.90;88.30;;;22.86;75.88;98738.19;10256406;28;97291;-95
2023/08/29 00:14:56;;;;;;;5.85;4.10;;;23.90;88.40;;;22.89;75.32;98740.34;10254452;28;97784;-95
2023/08/29 00:20:02;;;;;;;11.75;5.00;;;23.90;88.30;;;22.98;75.02;98759.50;10277911;28;97315;-96
2023/08/29 00:25:07;;;;;;;9.75;4.30;;;23.90;88.00;;;22.99;74.36;98763.03;10284379;28;98272;-96
2023/08/29 00:30:11;;;;;;;6.75;4.57;;;24.00;87.70;;;22.96;74.37;98788.75;10262046;28;97165;-95
2023/08/29 00:35:15;;;;;;;5.88;4.47;;;23.90;87.60;;;22.95;74.44;98793.38;10273293;28;97420;-96
2023/08/29 00:40:19;;;;;;;8.10;4.30;;;23.90;87.80;;;22.86;74.42;98783.41;10262861;28;96981;-96
2023/08/29 00:45:23;;;;;;;9.02;4.43;;;23.90;87.90;;;22.77;74.84;98793.22;10264013;28;96849;-96
2023/08/29 00:50:27;;;;;;;6.53;4.38;;;23.80;88.10;;;22.77;74.83;98795.91;10256572;28;96858;-95
2023/08/29 00:55:34;;;;;;;9.45;4.88;;;23.70;88.40;;;22.69;75.92;98792.72;10275235;28;96756;-96
2023/08/29 01:00:39;;;;;;;8.18;4.43;;;23.80;88.70;;;22.75;76.07;98827.91;10273874;28;96801;-95
2023/08/29 01:05:42;;;;;;;6.32;4.40;;;23.60;89.10;;;22.55;76.28;98826.94;10269702;28;97238;-95
2023/08/29 01:11:03;;;;;;;4.55;4.05;;;23.60;89.40;;;22.66;76.85;98846.63;10281692;28;96753;-94
2023/08/29 01:16:10;;;;;;;7.90;4.50;;;23.60;89.60;;;22.53;76.81;98834.50;10278156;28;98364;-94
2023/08/29 01:21:45;;;;;;;6.50;5.30;;;23.50;89.80;;;22.36;77.81;98844.88;10260175;28;96720;-94
2023/08/29 01:26:50;;;;;;;7.60;4.65;;;23.40;90.40;;;22.27;78.29;98844.66;10279447;28;96741;-94
2023/08/29 01:31:55;;;;;;;6.45;4.60;;;23.30;90.30;;;22.13;79.33;98830.94;10273972;28;98449;-94
2023/08/29 01:36:59;;;;;;;5.60;4.97;;;23.30;90.60;;;22.10;80.29;98850.41;10261365;28;97161;-95
2023/08/29 01:42:06;;;;;;;9.02;5.15;;;23.10;91.00;;;21.96;81.95;98808.78;10274658;28;96856;-92
2023/08/29 01:47:11;;;;;;;8.40;5.47;;;23.00;91.50;;;21.97;82.86;98821.22;10255478;28;98268;-94
2023/08/29 01:52:18;;;;;;;9.30;5.47;;;22.90;91.80;;;21.94;82.68;98794.69;10285704;28;98342;-96
2023/08/29 01:57:26;;;;;;;7.32;5.60;;;22.80;91.90;;;21.90;82.71;98788.25;10253301;28;98487;-95
2023/08/29 02:02:30;;;;;;;8.25;5.40;;;22.80;92.00;;;21.83;83.20;98788.53;10275158;28;96894;-96
2023/08/29 02:07:34;;;;;;;7.20;5.47;;;22.80;92.20;;;21.62;83.51;98776.97;10257580;28;96765;-95
2023/08/29 02:12:37;;;;;;;9.40;6.32;;;22.70;92.30;;;21.62;84.26;98778.84;10275573;28;96764;-95
2023/08/29 02:17:41;;;;;;;8.95;6.03;;;22.60;92.50;;;21.43;84.76;98748.09;10258950;28;98616;-94
2023/08/29 02:22:45;;;;;;;9.75;5.72;;;22.50;92.70;;;21.44;85.13;98784.84;10254822;28;96859;-92
2023/08/29 02:27:50;;;;;;;7.72;6.07;;;22.40;93.00;;;21.19;86.64;98793.78;10260694;28;96544;-93
2023/08/29 02:32:54;;;;;;;7.57;5.28;;;22.30;93.50;;;21.18;88.53;98789.44;10254638;28;97835;-94
2023/08/29 02:37:58;;;;;;;8.77;5.72;;;22.20;93.80;;;21.08;89.07;98755.94;10258396;28;97777;-94
2023/08/29 02:43:02;;;;;;;8.82;5.43;;;22.20;94.00;;;21.25;88.92;98762.97;10273764;28;96774;-94
2023/08/29 02:48:06;;;;;;;10.27;5.53;;;22.20;94.10;;;21.19;88.74;98734.34;10270612;28;96716;-92
2023/08/29 02:53:10;;;;;;;8.07;6.32;;;22.20;94.40;;;21.27;88.59;98728.38;10317976;28;96571;-94
2023/08/29 02:58:14;;;;;;;9.50;6.18;;;22.20;94.60;;;21.19;89.30;98726.22;10290534;28;96675;-94
2023/08/29 03:03:18;;;;;;;8.43;5.57;;;22.30;94.80;;;21.22;89.17;98739.19;10264618;28;97406;-94
2023/08/29 03:08:22;;;;;;;6.72;5.75;;;22.30;94.90;;;21.31;89.60;98741.09;10266777;28;97389;-92
2023/08/29 03:13:29;;;;;;;8.68;5.22;;;22.30;95.00;;;21.40;89.40;98754.84;10275689;28;96767;-92
2023/08/29 03:18:32;;;;;;;9.57;5.63;;;22.40;95.00;;;21.35;89.78;98750.28;10282418;28;98063;-95
2023/08/29 03:23:36;;;;;;;7.18;5.93;;;22.40;95.10;;;21.53;89.60;98762.41;10277229;28;96733;-93
2023/08/29 03:28:40;;;;;;;8.05;5.70;;;22.50;95.30;;;21.58;89.52;98775.06;10269622;28;98583;-94
2023/08/29 03:33:45;;;;;;;7.45;5.53;;;22.60;95.30;;;21.58;89.32;98772.38;10263627;28;96848;-93
2023/08/29 03:38:48;;;;;;;5.78;5.00;;;22.60;95.30;;;21.52;88.98;98760.75;10280860;28;96996;-94
2023/08/29 03:43:52;;;;;;;9.32;6.20;;;22.60;95.30;;;21.54;89.10;98764.03;10275270;28;96645;-95
2023/08/29 03:48:56;;;;;;;9.73;5.63;;;22.60;95.50;;;21.41;88.90;98753.78;10281486;28;98447;-93
2023/08/29 03:54:00;;;;;;;8.60;5.47;;;22.60;95.50;;;21.34;89.34;98737.03;10270702;28;97953;-95
2023/08/29 03:59:04;;;;;;;7.15;5.65;;;22.50;95.60;;;21.36;89.90;98745.69;10281087;28;96777;-95
2023/08/29 04:04:08;;;;;;;6.57;5.88;;;22.40;95.70;;;21.24;90.39;98737.03;10262105;28;98275;-94
2023/08/29 04:09:12;;;;;;;6.90;5.53;;;22.30;95.90;;;21.10;90.76;98710.56;10273173;28;97126;-95
2023/08/29 04:14:15;;;;;;;9.85;5.55;;;22.20;96.10;;;21.12;90.68;98721.13;10281893;28;98177;-94
2023/08/29 04:19:20;;;;;;;8.25;5.78;;;22.20;96.30;;;21.16;91.27;98737.56;10258543;28;98385;-95
2023/08/29 04:24:24;;;;;;;7.85;6.20;;;22.20;96.50;;;21.19;91.11;98755.94;10274903;28;97175;-93
2023/08/29 04:29:27;;;;;;;9.57;5.97;;;22.20;96.70;;;21.26;92.20;98768.09;10273864;28;96873;-94
2023/08/29 04:34:31;;;;;;;7.88;5.25;;;22.20;96.90;;;21.22;92.18;98777.00;10259461;28;96816;-95
2023/08/29 04:39:34;;;;;;;6.63;5.32;;;22.30;96.90;;;21.43;92.24;98788.63;10260090;28;97487;-95
2023/08/29 04:44:42;;;;;;;8.75;5.53;;;22.40;97.00;;;21.52;92.31;98787.78;10289501;28;97398;-95
2023/08/29 04:49:50;;;;;;;6.80;5.35;;;22.50;97.00;;;21.58;91.82;98785.88;10276993;28;97653;-95
2023/08/29 04:54:54;;;;;;;6.22;5.28;;;22.60;97.00;;;21.62;91.29;98803.19;10255519;28;97625;-93
2023/08/29 05:00:00;;;;;;;7.70;5.47;;;22.60;97.00;;;21.55;91.55;98800.78;10273927;28;96666;-90
2023/08/29 05:05:06;;;;;;;7.47;5.22;;;22.50;97.10;;;21.51;91.29;98791.59;10275951;28;97080;-95
2023/08/29 05:10:09;;;;;;;6.93;5.35;;;22.50;97.30;;;21.59;91.85;98799.16;10270300;28;96676;-91
2023/08/29 05:15:14;;;;;;;7.28;5.68;;;22.50;97.30;;;21.73;91.43;98798.56;10248618;28;97739;-91
2023/08/29 05:20:18;;;;;;;6.80;4.93;;;22.60;97.10;;;21.79;90.36;98786.66;10246445;28;97407;-95
2023/08/29 05:25:22;;;;;;;7.13;4.38;;;22.80;97.00;;;21.92;89.92;98805.00;10278580;28;97057;-94
2023/08/29 05:30:26;;;;;;;8.88;4.50;;;22.80;96.80;;;22.00;89.43;98815.22;10254983;28;97739;-93
2023/08/29 05:35:30;;;;;;;7.45;5.35;;;23.00;97.00;;;22.05;88.71;98831.44;10273147;28;97667;-94
2023/08/29 05:40:36;;;;;;;10.20;5.55;;;23.00;96.60;;;22.07;89.37;98814.94;10264232;28;97042;-94
2023/08/29 05:45:42;;;;;;;6.57;5.50;;;23.10;96.70;;;22.05;89.08;98817.91;10269914;28;98414;-94
2023/08/29 05:50:49;;;;;;;6.95;5.63;;;23.10;96.70;;;22.15;90.06;98814.41;10267458;28;98760;-93
2023/08/29 05:55:53;;;;;;;6.97;5.15;;;23.20;96.80;;;22.23;89.81;98808.41;10259129;28;97666;-92
2023/08/29 06:00:56;;;;;;;7.55;5.20;;;23.20;96.80;;;22.33;89.62;98805.66;10277084;28;96796;-92
2023/08/29 06:06:03;;;;;;;7.60;4.90;;;23.40;96.70;;;22.47;88.89;98808.56;10253533;28;96787;-94
2023/08/29 06:11:07;;;;;;;6.13;4.88;;;23.40;96.80;;;22.57;88.86;98797.69;10261312;28;97091;-93
2023/08/29 06:16:11;;;;;;;10.98;5.35;;;23.60;96.70;;;22.63;88.38;98793.84;10246073;28;99023;-92
2023/08/29 06:21:14;;;;;;;5.00;4.25;;;23.60;96.50;;;22.65;86.97;98797.06;10250927;28;97377;-93
2023/08/29 06:26:18;;;;;;;5.70;4.18;;;23.60;96.40;;;22.66;86.57;98792.47;10270675;28;97940;-93
2023/08/29 06:31:22;;;;;;;6.57;4.40;;;23.60;96.20;;;22.71;86.02;98804.06;10264288;28;98075;-92
2023/08/29 06:36:27;;;;;;;5.93;4.13;;;23.60;96.10;;;22.78;85.54;98809.19;10250067;28;98396;-93
2023/08/29 06:41:31;;;;;;;10.82;4.35;;;23.70;96.10;;;22.79;85.19;98815.41;10283059;28;96539;-92
2023/08/29 06:46:35;;;;;;;9.30;4.85;;;23.70;95.80;;;22.71;84.18;98838.47;10246790;28;96698;-93
2023/08/29 06:51:38;;;;;;;9.77;4.60;;;23.70;95.60;;;22.61;85.00;98835.81;10264038;28;97321;-94
2023/08/29 06:56:42;;;;;;;5.78;4.68;;;23.60;95.90;;;22.46;83.91;98812.34;10268537;28;96525;-93
2023/08/29 07:01:46;;;;;;;10.02;4.28;;;23.50;95.30;;;22.41;82.49;98852.97;10260583;28;98330;-92
2023/08/29 07:06:50;;;;;;;7.10;4.30;;;23.40;95.20;;;22.28;82.80;98910.41;10262424;28;96862;-92
2023/08/29 07:11:54;;;;;;;5.72;4.35;;;23.30;95.20;;;22.08;83.22;98933.72;10275478;28;97427;-93
2023/08/29 07:16:58;;;;;;;9.57;4.88;;;23.20;95.20;;;21.93;83.85;98966.19;10277734;28;97410;-95
2023/08/29 07:22:12;;;;;;;10.30;5.47;;;23.00;95.50;;;21.49;86.56;98960.50;10260816;28;98257;-93
2023/08/29 07:27:19;;;;;;;9.48;6.20;;;22.70;96.00;;;21.05;90.67;98988.78;10272340;28;98376;-95
2023/08/29 07:32:23;;;;;;;12.73;5.97;;;22.20;97.20;;;20.62;94.54;98971.03;10298578;28;99397;-96
2023/08/29 07:37:27;;;;;;;13.23;7.05;;;21.90;98.10;;;20.36;97.13;98975.47;10276399;28;96787;-96
2023/08/29 07:42:31;;;;;;;11.77;7.22;;;21.50;99.10;;;20.13;100.00;98938.13;10300617;28;98358;-96
2023/08/29 07:47:34;;;;;;;9.38;6.78;;;21.30;99.80;;;20.06;100.00;98922.16;10295804;28;96656;-96
2023/08/29 07:52:38;;;;;;;11.10;7.85;;;21.10;99.90;;;20.07;100.00;98914.88;10314861;28;97866;-96
2023/08/29 07:57:44;;;;;;;10.48;7.88;;;21.10;99.90;;;20.09;100.00;98920.81;10300058;28;96362;-96
2023/08/29 08:02:48;;;;;;;13.48;8.13;;;21.10;99.90;;;20.06;100.00;98897.91;10321684;28;97581;-96
2023/08/29 08:07:52;;;;;;;11.60;8.15;;;21.10;99.90;;;20.10;100.00;98911.69;10301630;28;96960;-96
2023/08/29 08:12:56;;;;;;;15.10;8.93;;;21.10;99.90;;;20.06;100.00;98927.56;10279065;28;96725;-95
2023/08/29 08:17:59;;;;;;;13.20;9.30;;;21.10;99.90;;;20.09;100.00;98962.13;10271681;28;96999;-95
2023/08/29 08:23:03;;;;;;;10.85;7.80;;;21.10;99.90;;;20.13;100.00;98965.09;10274275;28;96850;-96
2023/08/29 08:28:07;;;;;;;10.68;8.32;;;21.20;99.90;;;20.16;100.00;98953.78;10288435;28;98096;-96
2023/08/29 08:33:11;;;;;;;9.48;8.02;;;21.20;99.90;;;20.22;100.00;98985.13;10279202;28;97066;-96
2023/08/29 08:38:17;;;;;;;12.80;8.75;;;21.30;99.90;;;20.25;100.00;99006.97;10269711;28;96790;-96
2023/08/29 08:43:23;;;;;;;12.30;8.43;;;21.30;99.90;;;20.24;100.00;99026.13;10279233;28;98640;-94
2023/08/29 08:48:27;;;;;;;11.95;8.85;;;21.30;99.90;;;20.16;100.00;99032.00;10276162;28;98047;-96
2023/08/29 08:53:32;;;;;;;13.73;9.65;;;21.30;99.90;;;20.18;100.00;99046.03;10296807;28;96573;-95
2023/08/29 08:58:37;;;;;;;17.30;8.77;;;21.30;99.90;;;20.08;100.00;99038.66;10273175;28;98409;-93
2023/08/29 09:03:45;;;;;;;13.95;9.48;;;21.20;99.90;;;20.04;100.00;99040.28;10269679;28;97117;-94
2023/08/29 09:08:48;;;;;;;12.73;9.18;;;21.10;99.90;;;19.92;100.00;99040.44;10273822;28;97377;-93
2023/08/29 09:13:52;;;;;;;18.73;9.45;;;21.00;99.90;;;19.85;100.00;99039.84;10271139;28;98446;-93
2023/08/29 09:18:55;;;;;;;12.93;8.95;;;21.00;99.90;;;19.74;100.00;99027.34;10255659;28;97930;-94
2023/08/29 09:24:31;;;;;;;;;;;20.90;99.90;;;19.67;100.00;99014.09;10276429;28;96726;-95
2023/08/29 09:29:34;;;;;;;14.40;8.90;;;20.80;99.90;;;19.66;100.00;98969.31;10274108;28;97186;-95
2023/08/29 09:34:38;;;;;;;11.55;9.52;;;20.70;99.90;;;19.64;100.00;98995.72;10259120;28;96808;-94
2023/08/29 09:39:41;;;;;;;13.32;8.73;;;20.70;99.90;;;19.64;100.00;98958.00;10286777;28;98554;-95
2023/08/29 09:44:48;;;;;;;14.10;9.77;;;20.70;99.90;;;19.66;100.00;98950.44;10271127;28;97363;-94
2023/08/29 09:49:51;;;;;;;16.52;11.60;;;20.70;99.90;;;19.66;100.00;98939.66;10271458;28;97183;-95
2023/08/29 09:54:57;;;;;;;14.25;10.50;;;20.70;99.90;;;19.71;100.00;98909.25;10280997;28;96661;-94
2023/08/29 10:00:04;;;;;;;15.43;10.15;;;20.70;99.90;;;19.71;100.00;98918.16;10277388;28;98444;-92
2023/08/29 10:05:12;;;;;;;12.70;10.02;;;20.80;99.90;;;19.71;100.00;98928.94;10261697;28;96661;-96
2023/08/29 10:10:16;;;;;;;15.48;9.70;;;20.80;99.90;;;19.70;100.00;98913.03;10261839;28;96658;-94
2023/08/29 10:15:20;;;;;;;13.88;10.05;;;20.80;99.90;;;19.68;100.00;98921.38;10261882;28;97235;-96
2023/08/29 10:20:26;;;;;;;13.82;9.63;;;20.80;99.90;;;19.64;100.00;98935.63;10263049;28;98169;-95
2023/08/29 10:25:31;;;;;;;12.65;9.43;;;20.70;99.90;;;19.58;100.00;98925.84;10254981;28;98378;-96
2023/08/29 10:30:39;;;;;;;14.27;11.13;;;20.70;99.90;;;19.49;100.00;98929.03;10256750;28;97806;-96
2023/08/29 10:35:47;;;;;;;13.18;10.80;;;20.70;99.90;;;19.53;100.00;98946.28;10252932;28;97468;-92
2023/08/29 10:41:05;;;;;;;13.32;9.50;;;20.60;99.90;;;19.58;100.00;98959.03;10270693;28;98384;-92
2023/08/29 10:46:11;;;;;;;15.52;10.18;;;20.60;99.90;;;19.62;100.00;98965.53;10261591;28;97372;-92
2023/08/29 10:51:24;;;;;;;13.00;9.30;;;20.70;99.90;;;19.64;100.00;98958.00;10274035;28;98098;-94
2023/08/29 10:56:41;;;;;;;13.35;9.15;;;20.70;99.90;;;19.66;100.00;98930.78;10292302;28;97508;-94
2023/08/29 11:01:44;;;;;;;13.50;9.30;;;20.80;99.90;;;19.81;100.00;98916.63;10272272;28;97216;-96
2023/08/29 11:06:56;;;;;;;13.50;8.15;;;20.90;99.90;;;20.09;100.00;98910.03;10263020;28;97409;-90
2023/08/29 11:12:12;;;;;;;13.85;9.05;;;21.10;99.90;;;20.30;100.00;98901.00;10260876;28;97466;-92
2023/08/29 11:17:23;;;;;;;11.25;8.30;;;21.30;99.90;;;20.61;100.00;98880.34;10248449;28;96772;-90
2023/08/29 11:22:30;;;;;;;10.48;6.70;;;21.60;99.90;;;20.88;100.00;98874.78;10272035;28;96807;-91
2023/08/29 11:27:39;;;;;;;9.43;6.80;;;21.90;99.90;;;20.93;100.00;98828.88;10267259;28;98442;-92
2023/08/29 11:32:52;;;;;;;10.77;6.70;;;22.10;99.90;;;21.11;100.00;98833.75;10257953;28;98760;-90
2023/08/29 11:37:58;;;;;;;7.10;5.57;;;22.30;99.90;;;21.29;100.00;98831.59;10265139;28;98725;-93
2023/08/29 11:43:02;;;;;;;8.50;5.68;;;22.40;99.90;;;21.34;100.00;98829.69;10272867;28;98065;-92
2023/08/29 11:48:28;;;;;;;6.72;4.60;;;22.60;99.90;;;21.38;100.00;98827.28;10292722;28;98288;-95
2023/08/29 11:53:40;;;;;;;7.85;5.13;;;22.70;99.90;;;21.37;100.00;98820.25;10292317;28;97006;-95
2023/08/29 11:58:45;;;;;;;8.35;5.82;;;22.80;99.90;;;21.52;100.00;98836.44;10291795;28;97055;-96
2023/08/29 12:03:54;;;;;;;8.48;5.13;;;22.80;99.90;;;21.53;100.00;98842.66;10273763;28;97067;-95
2023/08/29 12:08:59;;;;;;;9.93;6.00;;;22.80;99.90;;;21.70;100.00;98862.09;10298215;28;96708;-93
2023/08/29 12:14:07;;;;;;;9.90;5.95;;;22.90;99.90;;;21.91;100.00;98869.09;10280794;28;97275;-94
2023/08/29 12:19:16;;;;;;;9.65;6.45;;;23.10;99.90;;;22.03;100.00;98854.47;10256100;28;97421;-96
2023/08/29 12:24:21;;;;;;;11.47;5.90;;;23.30;99.90;;;22.37;100.00;98862.72;10282382;28;97033;-96
2023/08/29 12:29:24;;;;;;;8.52;5.38;;;23.60;99.90;;;22.57;100.00;98873.47;10270090;28;96940;-94
2023/08/29 12:34:28;;;;;;;5.32;4.32;;;23.90;99.90;;;22.67;100.00;98878.84;10272368;28;97020;-91
2023/08/29 12:39:33;;;;;;;6.15;4.10;;;24.10;99.90;;;22.76;97.35;98886.38;10266189;28;96870;-93
2023/08/29 12:44:37;;;;;;;5.30;3.97;;;24.10;99.90;;;22.98;95.32;98888.72;10271680;28;97211;-93
2023/08/29 12:49:40;;;;;;;6.85;3.72;;;24.20;99.90;;;22.98;94.08;98883.31;10276367;28;96940;-94
2023/08/29 12:54:44;;;;;;;5.82;3.55;;;24.30;99.90;;;23.00;92.27;98876.50;10284082;28;96657;-90
2023/08/29 12:59:48;;;;;;;6.40;3.50;;;24.30;99.90;;;22.92;90.67;98885.25;10275042;28;98343;-93
2023/08/29 13:04:51;;;;;;;4.55;3.60;;;24.20;99.90;;;22.80;92.29;98879.31;10300666;28;98212;-91
2023/08/29 13:09:55;;;;;;;5.57;3.47;;;24.10;99.90;;;22.84;93.96;98873.03;10298775;28;97361;-87
2023/08/29 13:14:59;;;;;;;7.75;4.35;;;24.10;99.90;;;22.89;93.49;98869.53;10274678;28;98104;-90
2023/08/29 13:20:02;;;;;;;5.53;3.33;;;24.20;99.90;;;22.96;93.22;98880.84;10291990;28;96693;-89
2023/08/29 13:25:07;;;;;;;4.70;2.85;;;24.20;99.90;;;23.05;91.67;98879.19;10274129;28;97874;-93
2023/08/29 13:30:12;;;;;;;5.57;3.40;;;24.30;99.90;;;23.07;89.29;98868.06;10281337;28;96633;-91
2023/08/29 13:35:19;;;;;;;3.50;2.72;;;24.40;99.90;;;23.14;87.19;98868.53;10279744;28;96721;-90
2023/08/29 13:40:22;;;;;;;4.05;2.80;;;24.40;99.90;;;23.13;86.93;98872.34;10253527;28;98312;-92
2023/08/29 13:45:26;;;;;;;7.13;3.40;;;24.40;99.90;;;23.16;86.99;98872.59;10257617;28;96540;-91
2023/08/29 13:50:29;;;;;;;4.13;3.00;;;24.50;99.90;;;23.18;85.00;98866.91;10275580;28;98368;-90
2023/08/29 13:55:35;;;;;;;5.45;3.45;;;24.50;99.90;;;23.16;84.24;98869.91;10260907;28;96634;-91
2023/08/29 14:00:38;;;;;;;5.53;3.55;;;24.50;99.80;;;23.16;85.83;98869.09;10257607;28;96698;-91
2023/08/29 14:05:46;;;;;;;4.65;3.35;;;24.50;99.90;;;23.19;86.69;98860.38;10261897;28;97324;-91
2023/08/29 14:10:51;;;;;;;4.03;3.40;;;24.50;99.90;;;23.19;86.95;98853.06;10258368;28;97617;-90
2023/08/29 14:16:03;;;;;;;6.45;3.10;;;24.50;99.90;;;23.21;86.08;98845.47;10263798;28;96565;-93
2023/08/29 14:21:09;;;;;;;5.85;2.72;;;24.50;99.90;;;23.27;87.34;98837.28;10261674;28;96623;-91
2023/08/29 14:26:12;;;;;;;5.45;3.08;;;24.50;99.90;;;23.38;87.57;98841.53;10271766;28;96900;-96
2023/08/29 14:31:24;;;;;;;3.70;3.17;;;24.70;99.90;;;23.36;86.58;98833.69;10290404;28;96833;-93
2023/08/29 14:36:31;;;;;;;6.93;3.15;;;24.80;99.90;;;23.59;84.16;98850.28;10293061;28;96645;-92
2023/08/29 14:41:35;;;;;;;4.47;3.55;;;25.10;99.40;;;23.58;83.09;98835.13;10252581;28;96942;-92
2023/08/29 14:46:39;;;;;;;5.55;3.28;;;25.10;98.80;;;23.56;83.51;98829.97;10274836;28;96680;-92
2023/08/29 14:51:46;;;;;;;4.35;3.28;;;25.10;98.80;;;23.50;83.74;98810.22;10260061;28;97623;-95
2023/08/29 14:56:50;;;;;;;5.40;3.45;;;25.00;98.80;;;23.30;83.61;98805.00;10282613;28;97521;-89
2023/08/29 15:01:54;;;;;;;4.95;3.55;;;24.90;98.70;;;23.24;84.91;98809.66;10258591;28;96489;-89
2023/08/29 15:07:00;;;;;;;6.28;3.92;;;24.70;99.10;;;23.11;84.74;98810.31;10287512;28;96803;-89
2023/08/29 15:12:05;;;;;;;4.90;3.50;;;24.50;99.10;;;23.05;85.76;98811.47;10247619;28;97335;-88
2023/08/29 15:17:09;;;;;;;5.40;3.30;;;24.40;99.40;;;23.00;86.06;98816.91;10281399;28;96679;-89
2023/08/29 15:22:13;;;;;;;4.93;3.47;;;24.30;99.50;;;23.02;86.95;98811.19;10259950;28;97301;-89
2023/08/29 15:27:16;;;;;;;6.35;3.60;;;24.30;99.80;;;23.06;87.05;98804.94;10285309;28;98366;-91
2023/08/29 15:32:20;;;;;;;6.22;3.97;;;24.40;99.90;;;23.05;86.91;98784.38;10282035;28;96680;-91
2023/08/29 15:37:24;;;;;;;5.68;3.38;;;24.50;99.80;;;23.18;87.16;98786.41;10285830;28;96468;-90
2023/08/29 15:42:30;;;;;;;6.32;3.40;;;24.50;99.80;;;23.28;87.03;98788.22;10260432;28;97393;-89
2023/08/29 15:47:35;;;;;;;6.85;4.15;;;24.70;99.90;;;23.48;86.62;98779.88;10281017;28;98995;-90
2023/08/29 15:52:40;;;;;;;4.82;3.33;;;24.90;99.80;;;23.90;86.06;98772.94;10280030;28;97943;-91
2023/08/29 15:57:43;;;;;;;4.25;3.40;;;25.40;99.50;;;24.20;83.10;98771.75;10281358;28;97050;-90
2023/08/29 16:02:47;;;;;;;6.15;3.50;;;25.70;98.70;;;24.20;81.17;98758.19;10281375;28;96799;-91
2023/08/29 16:07:51;;;;;;;7.00;3.50;;;25.80;98.00;;;24.11;81.54;98754.53;10295768;28;97357;-90
2023/08/29 16:12:54;;;;;;;6.20;3.45;;;25.70;98.00;;;23.94;81.46;98756.91;10267030;28;96431;-89
2023/08/29 16:17:58;;;;;;;6.00;3.20;;;25.50;97.80;;;23.70;81.01;98730.63;10257732;28;96634;-91
2023/08/29 16:23:03;;;;;;;6.55;3.75;;;25.20;97.80;;;23.53;82.77;98724.81;10279900;28;97338;-91
2023/08/29 16:28:06;;;;;;;14.50;3.97;;;25.00;98.10;;;23.36;83.77;98706.28;10276441;28;96673;-91
2023/08/29 16:33:13;;;;;;;8.85;4.15;;;24.80;98.30;;;23.18;84.26;98699.69;10282347;28;96669;-91
2023/08/29 16:38:17;;;;;;;6.38;4.00;;;24.60;98.60;;;23.07;85.45;98709.03;10263109;28;96920;-91
2023/08/29 16:43:21;;;;;;;5.22;3.97;;;24.50;98.90;;;22.95;86.37;98722.94;10295584;28;96656;-92
2023/08/29 16:48:25;;;;;;;6.15;4.28;;;24.30;99.10;;;22.87;87.53;98736.31;10278543;28;97178;-93
2023/08/29 16:53:28;;;;;;;4.82;3.53;;;24.20;99.50;;;22.68;88.02;98734.25;10274956;28;97063;-88
2023/08/29 16:58:32;;;;;;;4.82;3.80;;;24.10;99.60;;;22.56;88.71;98736.50;10258941;28;98468;-89
2023/08/29 17:03:35;;;;;;;5.35;3.72;;;23.90;99.90;;;22.49;89.52;98741.44;10294284;28;96613;-90
2023/08/29 17:08:39;;;;;;;5.13;4.13;;;23.80;99.90;;;22.41;90.42;98750.94;10298132;28;98221;-90
2023/08/29 17:13:43;;;;;;;8.02;4.20;;;23.70;99.90;;;22.25;91.13;98756.72;10278384;28;97558;-93
2023/08/29 17:18:47;;;;;;;4.93;4.43;;;23.50;99.90;;;22.11;91.90;98765.44;10268889;28;98306;-95
2023/08/29 17:23:51;;;;;;;6.60;4.70;;;23.30;99.90;;;21.98;92.44;98773.34;10275817;28;97212;-88
2023/08/29 17:28:54;;;;;;;7.65;5.38;;;23.20;99.90;;;21.85;93.65;98774.75;10279665;28;97189;-88
2023/08/29 17:34:00;;;;;;;6.40;4.60;;;23.00;99.90;;;21.77;94.27;98783.41;10268118;28;97245;-88
2023/08/29 17:39:04;;;;;;;7.90;4.53;;;22.90;99.90;;;21.66;95.29;98779.94;10268757;28;97649;-88
2023/08/29 17:44:07;;;;;;;7.38;5.20;;;22.80;99.90;;;21.58;96.51;98784.00;10274766;28;96629;-88
2023/08/29 17:49:11;;;;;;;8.82;4.90;;;22.80;99.90;;;21.49;97.60;98782.94;10260237;28;96979;-89
2023/08/29 17:54:15;;;;;;;6.45;4.70;;;22.70;99.90;;;21.42;99.02;98798.63;10274217;28;97987;-89
2023/08/29 17:59:19;;;;;;;8.50;5.38;;;22.60;99.90;;;21.33;99.68;98798.38;10259521;28;96762;-89
2023/08/29 18:04:23;;;;;;;7.55;5.43;;;22.50;99.90;;;21.23;100.00;98798.38;10279155;28;96708;-94
2023/08/29 18:09:26;;;;;;;9.90;6.00;;;22.40;99.90;;;21.10;100.00;98802.41;10260467;28;97310;-92
2023/08/29 18:14:31;;;;;;;7.50;5.90;;;22.30;99.90;;;21.00;100.00;98791.63;10285610;28;98302;-93
2023/08/29 18:19:35;;;;;;;7.80;6.13;;;22.20;99.90;;;20.96;100.00;98795.91;10263415;28;97511;-95
2023/08/29 18:24:38;;;;;;;9.05;6.13;;;22.10;99.90;;;20.85;100.00;98805.09;10258882;28;97409;-94
2023/08/29 18:29:42;;;;;;;9.35;6.25;;;22.00;99.90;;;20.77;100.00;98817.25;10265650;28;96815;-93
2023/08/29 18:34:46;;;;;;;6.43;5.53;;;21.90;99.90;;;20.69;100.00;98816.94;10269672;28;97570;-93
2023/08/29 18:39:51;;;;;;;8.48;6.07;;;21.80;99.90;;;20.57;100.00;98839.63;10254604;28;96800;-92
2023/08/29 18:44:54;;;;;;;6.90;5.20;;;21.70;99.90;;;20.43;100.00;98851.13;10252919;28;97246;-91
2023/08/29 18:49:58;;;;;;;8.80;5.32;;;21.60;99.90;;;20.27;100.00;98850.25;10277410;28;97512;-92
2023/08/29 18:55:05;;;;;;;8.65;5.40;;;21.50;99.90;;;20.28;100.00;98868.88;10270654;28;98393;-95
2023/08/29 19:00:10;;;;;;;7.65;5.75;;;21.40;99.90;;;20.26;100.00;98894.50;10247684;28;99357;-93
2023/08/29 19:05:16;;;;;;;8.48;5.43;;;21.40;99.90;;;20.18;100.00;98903.09;10283481;28;100401;-94
2023/08/29 19:10:19;;;;;;;7.18;5.45;;;21.40;99.90;;;20.10;100.00;98914.38;10264648;28;98373;-94
2023/08/29 19:15:23;;;;;;;9.30;5.68;;;21.30;99.90;;;20.03;100.00;98934.28;10271555;28;96767;-92
2023/08/29 19:20:27;;;;;;;9.18;5.95;;;21.20;99.90;;;20.02;100.00;98935.34;10264569;28;98069;-94
2023/08/29 19:25:30;;;;;;;8.07;5.72;;;21.20;99.90;;;19.92;100.00;98921.81;10268906;28;97970;-91
2023/08/29 19:30:34;;;;;;;8.48;6.10;;;21.10;99.90;;;19.83;100.00;98907.19;10275527;28;97369;-92
2023/08/29 19:35:38;;;;;;;7.35;5.50;;;21.00;99.90;;;19.78;100.00;98916.03;10264840;28;97854;-90
2023/08/29 19:40:42;;;;;;;6.15;5.20;;;20.90;99.90;;;19.78;100.00;98915.25;10269922;28;98281;-90
2023/08/29 19:45:45;;;;;;;5.72;5.07;;;20.80;99.90;;;19.88;100.00;98927.97;10247223;28;98159;-91
2023/08/29 19:50:48;;;;;;;2.88;2.30;;;20.90;99.90;;;19.77;100.00;98908.22;10290165;28;97013;-90
2023/08/29 19:55:55;;;;;;;2.58;1.73;;;20.90;99.90;;;19.78;98.66;98926.00;10281322;28;97273;-91
2023/08/29 20:01:06;;;;;;;3.55;1.60;;;20.90;99.90;;;19.70;95.61;98934.59;10274891;28;98716;-93
2023/08/29 20:06:12;;;;;;;1.70;1.10;;;20.80;99.90;;;19.54;88.50;98955.16;10286851;28;98199;-91
2023/08/29 20:11:17;;;;;;;1.17;0.80;;;20.70;99.90;;;19.30;87.63;98935.03;10294506;28;98542;-85
2023/08/29 20:16:20;;;;;;;1.95;0.80;;;20.50;99.90;;;19.04;89.18;98925.88;10261120;28;97221;-86
2023/08/29 20:21:24;;;;;;;1.83;0.82;;;20.20;99.90;;;18.78;90.79;98922.94;10277099;28;97440;-86
2023/08/29 20:26:29;;;;;;;2.65;1.35;;;20.00;99.90;;;18.56;93.08;98916.72;10282760;28;98821;-85
2023/08/29 20:31:34;;;;;;;2.45;0.73;;;19.70;99.90;;;18.38;94.48;98889.06;10271419;28;96683;-86
2023/08/29 20:36:37;;;;;;;2.58;0.75;;;19.50;99.90;;;18.25;95.10;98908.28;10278381;28;97293;-86
2023/08/29 20:41:42;;;;;;;1.50;0.65;;;19.40;99.90;;;18.20;96.19;98910.88;10289633;28;99082;-85
2023/08/29 20:46:46;;;;;;;1.23;0.60;;;19.30;99.90;;;18.21;96.91;98923.25;10288989;28;97427;-85
2023/08/29 20:51:51;;;;;;;1.02;0.68;;;19.30;99.90;;;18.20;96.97;98937.78;10285922;28;98690;-85
2023/08/29 20:56:55;;;;;;;1.92;0.70;;;19.40;99.90;;;18.19;97.43;98947.72;10266035;28;99020;-85
2023/08/29 21:01:58;;;;;;;1.08;0.70;;;19.40;99.90;;;18.23;98.20;98937.25;10258036;28;99163;-86
2023/08/29 21:07:02;;;;;;;1.83;0.80;;;19.40;99.90;;;18.17;97.75;98931.03;10263657;28;98119;-87